createdAt,value
2022-10-22T00:02:12.110Z,80.50
2022-10-22T00:07:14.188Z,81.11
2022-10-22T00:12:16.111Z,81.29
2022-10-22T00:17:17.593Z,80.54
2022-10-22T00:22:18.999Z,81.46
2022-10-22T00:27:20.389Z,81.53
2022-10-22T00:32:22.107Z,81.50
2022-10-22T00:37:23.546Z,82.98
2022-10-22T00:42:27.363Z,83.14
2022-10-22T00:47:35.217Z,83.79
2022-10-22T00:52:36.664Z,84.17
2022-10-22T00:57:38.226Z,84.62
2022-10-22T01:02:39.824Z,84.77
2022-10-22T01:07:45.178Z,84.65
2022-10-22T01:13:22.011Z,84.51
2022-10-22T01:18:38.627Z,84.65
2022-10-22T01:23:59.772Z,84.66
2022-10-22T01:29:13.124Z,84.50
2022-10-22T01:39:49.439Z,84.48
2022-10-22T01:44:50.821Z,84.38
2022-10-22T01:50:14.362Z,84.30
2022-10-22T01:55:41.812Z,82.99
2022-10-22T02:00:50.527Z,83.17
2022-10-22T02:05:56.719Z,83.23
2022-10-22T02:10:59.287Z,84.03
2022-10-22T02:16:01.794Z,84.17
2022-10-22T02:21:03.691Z,84.77
2022-10-22T02:26:32.559Z,84.89
2022-10-22T02:31:39.021Z,84.27
2022-10-22T02:36:46.667Z,84.94
2022-10-22T02:41:51.345Z,84.18
2022-10-22T02:46:52.777Z,84.29
2022-10-22T02:51:54.210Z,84.40
2022-10-22T03:02:19.470Z,83.68
2022-10-22T03:07:20.896Z,83.39
2022-10-22T03:12:22.527Z,84.42
2022-10-22T03:17:24.324Z,84.43
2022-10-22T03:22:29.251Z,84.89
2022-10-22T03:27:30.658Z,84.40
2022-10-22T03:32:32.043Z,84.17
2022-10-22T03:37:34.473Z,84.39
2022-10-22T03:42:35.878Z,84.68
2022-10-22T03:47:37.626Z,85.06
2022-10-22T03:52:40.008Z,85.07
2022-10-22T04:03:04.894Z,84.38
2022-10-22T04:08:06.401Z,84.73
2022-10-22T04:13:07.764Z,83.69
2022-10-22T04:18:09.152Z,83.87
2022-10-22T04:23:10.669Z,84.16
2022-10-22T04:28:12.059Z,84.73
2022-10-22T04:33:13.436Z,84.87
2022-10-22T04:43:39.288Z,84.62
2022-10-22T04:48:42.120Z,84.84
2022-10-22T04:53:44.025Z,85.45
2022-10-22T04:58:45.487Z,85.46
2022-10-22T05:03:48.698Z,85.10
2022-10-22T05:08:55.683Z,85.44
2022-10-22T05:13:58.682Z,85.56
2022-10-22T05:19:01.892Z,85.14
2022-10-22T05:24:03.434Z,85.44
2022-10-22T05:29:04.856Z,85.62
2022-10-22T05:34:06.296Z,85.81
2022-10-22T05:39:07.803Z,85.77
2022-10-22T05:44:11.919Z,85.25
2022-10-22T05:49:15.317Z,85.20
2022-10-22T05:54:19.110Z,84.67
2022-10-22T05:59:20.485Z,85.13
2022-10-22T06:04:21.906Z,85.68
2022-10-22T06:09:30.462Z,85.99
2022-10-22T06:14:31.930Z,85.55
2022-10-22T06:19:33.353Z,85.60
2022-10-22T06:24:34.761Z,85.65
2022-10-22T06:29:36.158Z,85.57
2022-10-22T06:34:37.584Z,85.85
2022-10-22T06:39:39.158Z,85.39
2022-10-22T06:44:40.571Z,85.54
2022-10-22T06:49:41.964Z,86.32
2022-10-22T06:54:43.345Z,87.25
2022-10-22T06:59:46.383Z,86.95
2022-10-22T07:04:48.207Z,86.23
2022-10-22T07:09:51.359Z,86.00
2022-10-22T07:14:52.969Z,86.09
2022-10-22T07:19:54.352Z,85.69
2022-10-22T07:24:55.736Z,86.13
2022-10-22T07:29:57.186Z,85.53
2022-10-22T07:34:58.588Z,85.75
2022-10-22T07:40:02.996Z,86.18
2022-10-22T07:45:06.091Z,85.72
2022-10-22T07:50:07.817Z,86.05
2022-10-22T07:55:09.534Z,85.81
2022-10-22T08:00:11.464Z,85.33
2022-10-22T08:05:15.756Z,85.65
2022-10-22T08:10:17.358Z,86.60
2022-10-22T08:15:18.872Z,86.34
2022-10-22T08:20:20.363Z,84.20
2022-10-22T08:25:21.801Z,83.33
2022-10-22T08:30:23.224Z,84.02
2022-10-22T08:35:24.787Z,82.36
2022-10-22T08:40:37.509Z,80.85
2022-10-22T08:45:49.659Z,78.03
2022-10-22T08:50:54.607Z,77.52
2022-10-22T08:55:57.096Z,76.53
2022-10-22T09:01:19.167Z,76.44
2022-10-22T09:06:24.529Z,76.37
2022-10-22T09:11:35.510Z,74.93
2022-10-22T09:16:53.151Z,74.22
2022-10-22T09:22:19.574Z,72.47
2022-10-22T09:27:27.935Z,72.00
2022-10-22T09:32:29.339Z,67.87
2022-10-22T09:37:30.788Z,65.67
2022-10-22T09:42:32.199Z,63.90
2022-10-22T09:48:00.436Z,62.16
2022-10-22T09:53:31.698Z,60.47
2022-10-22T09:58:43.432Z,56.79
2022-10-22T10:03:44.870Z,57.51
2022-10-22T10:08:46.567Z,57.48
2022-10-22T10:14:15.573Z,55.34
2022-10-22T10:19:34.101Z,56.04
2022-10-22T10:24:53.750Z,54.84
2022-10-22T10:30:16.721Z,51.73
2022-10-22T10:35:41.342Z,47.44
2022-10-22T10:40:49.940Z,42.29
2022-10-22T10:46:14.525Z,39.32
2022-10-22T10:51:27.630Z,41.06
2022-10-22T10:56:44.579Z,42.44
2022-10-22T11:01:54.618Z,42.87
2022-10-22T11:07:10.762Z,38.04
2022-10-22T11:12:25.931Z,32.60
2022-10-22T11:17:39.268Z,29.19
2022-10-22T11:22:50.474Z,26.01
2022-10-22T11:28:32.209Z,25.34
2022-10-22T11:33:45.988Z,24.40
2022-10-22T11:38:47.626Z,23.79
2022-10-22T11:43:54.907Z,22.23
2022-10-22T11:49:14.680Z,23.40
2022-10-22T11:54:35.972Z,22.40
2022-10-22T11:59:48.225Z,21.83
2022-10-22T12:04:49.913Z,21.52
2022-10-22T12:14:57.839Z,20.79
2022-10-22T12:20:07.456Z,20.71
2022-10-22T12:25:22.386Z,21.31
2022-10-22T12:30:24.997Z,21.17
2022-10-22T12:35:29.076Z,21.27
2022-10-22T12:40:34.532Z,20.84
2022-10-22T12:45:37.689Z,20.31
2022-10-22T12:50:45.158Z,20.95
2022-10-22T12:55:49.789Z,20.96
2022-10-22T13:00:55.839Z,21.21
2022-10-22T13:06:09.560Z,21.28
2022-10-22T13:11:11.947Z,21.78
2022-10-22T13:16:22.351Z,21.46
2022-10-22T13:21:33.640Z,22.78
2022-10-22T13:26:37.149Z,22.03
2022-10-22T13:31:46.885Z,21.76
2022-10-22T13:36:49.026Z,24.27
2022-10-22T13:41:51.473Z,25.26
2022-10-22T13:46:52.929Z,25.86
2022-10-22T13:51:54.327Z,26.22
2022-10-22T13:56:55.714Z,26.91
2022-10-22T14:01:57.142Z,27.99
2022-10-22T14:07:01.272Z,28.32
2022-10-22T14:12:13.067Z,29.51
2022-10-22T14:17:16.423Z,30.14
2022-10-22T14:22:19.056Z,29.93
2022-10-22T14:27:20.474Z,32.26
2022-10-22T14:32:21.907Z,32.22
2022-10-22T14:37:23.301Z,34.31
2022-10-22T14:42:25.900Z,36.08
2022-10-22T14:47:27.306Z,36.06
2022-10-22T14:52:28.713Z,37.66
2022-10-22T14:57:30.122Z,40.95
2022-10-22T15:02:31.772Z,40.84
2022-10-22T15:07:33.262Z,41.62
2022-10-22T15:12:34.851Z,38.80
2022-10-22T15:17:36.272Z,38.66
2022-10-22T15:22:37.687Z,42.74
2022-10-22T15:27:39.465Z,44.32
2022-10-22T15:32:41.145Z,44.65
2022-10-22T15:37:42.802Z,48.24
2022-10-22T15:42:44.253Z,49.42
2022-10-22T15:47:47.620Z,51.74
2022-10-22T15:52:49.532Z,51.25
2022-10-22T15:57:54.269Z,52.95
2022-10-22T16:02:55.767Z,54.96
2022-10-22T16:07:57.165Z,56.05
2022-10-22T16:12:58.561Z,56.71
2022-10-22T16:17:59.945Z,57.29
2022-10-22T16:23:01.375Z,57.98
2022-10-22T16:28:02.820Z,59.21
2022-10-22T16:33:06.526Z,60.24
2022-10-22T16:38:09.645Z,60.83
2022-10-22T16:43:11.079Z,60.77
2022-10-22T16:48:12.490Z,62.02
2022-10-22T16:53:13.895Z,62.32
2022-10-22T16:58:15.309Z,62.94
2022-10-22T17:03:16.794Z,63.23
2022-10-22T17:08:18.313Z,64.00
2022-10-22T17:13:19.709Z,64.19
2022-10-22T17:18:21.090Z,64.32
2022-10-22T17:23:22.514Z,64.91
2022-10-22T17:28:23.955Z,65.69
2022-10-22T17:33:25.347Z,65.43
2022-10-22T17:38:27.853Z,65.63
2022-10-22T17:43:29.289Z,65.85
2022-10-22T17:48:30.691Z,64.87
2022-10-22T17:53:32.127Z,64.61
2022-10-22T17:58:33.561Z,64.40
2022-10-22T18:03:35.154Z,65.29
2022-10-22T18:08:36.715Z,65.21
2022-10-22T18:13:38.612Z,66.19
2022-10-22T18:18:40.048Z,66.71
2022-10-22T18:23:41.544Z,65.67
2022-10-22T18:28:42.961Z,64.74
2022-10-22T18:33:44.584Z,65.45
2022-10-22T18:38:54.300Z,66.35
2022-10-22T18:43:58.402Z,66.94
2022-10-22T18:49:00.011Z,66.38
2022-10-22T18:54:11.279Z,67.05
2022-10-22T18:59:25.205Z,66.99
2022-10-22T19:04:28.162Z,67.26
2022-10-22T19:09:29.814Z,67.66
2022-10-22T19:14:31.816Z,67.32
2022-10-22T19:19:33.242Z,66.98
2022-10-22T19:24:34.643Z,67.47
2022-10-22T19:29:36.350Z,67.55
2022-10-22T19:34:37.842Z,67.51
2022-10-22T19:39:39.249Z,67.29
2022-10-22T19:44:40.768Z,67.20
2022-10-22T19:49:42.168Z,67.28
2022-10-22T19:54:43.608Z,66.78
2022-10-22T19:59:45.632Z,66.02
2022-10-22T20:04:49.874Z,67.04
2022-10-22T20:09:51.521Z,67.34
2022-10-22T20:14:52.944Z,67.89
2022-10-22T20:19:54.356Z,68.36
2022-10-22T20:24:55.755Z,68.31
2022-10-22T20:29:57.181Z,67.10
2022-10-22T20:34:58.607Z,67.39
2022-10-22T20:40:00.250Z,68.21
2022-10-22T20:45:01.664Z,68.56
2022-10-22T20:50:03.635Z,68.93
2022-10-22T20:55:05.580Z,69.46
2022-10-22T21:00:07.968Z,69.72
2022-10-22T21:05:09.423Z,70.64
2022-10-22T21:10:10.885Z,69.85
2022-10-22T21:15:12.837Z,69.03
2022-10-22T21:20:14.586Z,68.75
2022-10-22T21:25:16.057Z,69.22
2022-10-22T21:30:17.491Z,68.73
2022-10-22T21:35:18.881Z,68.84
2022-10-22T21:40:20.258Z,69.33
2022-10-22T21:45:22.567Z,69.30
2022-10-22T21:50:24.064Z,69.34
2022-10-22T21:55:25.569Z,68.46
2022-10-22T22:00:27.096Z,68.28
2022-10-22T22:05:28.899Z,68.75
2022-10-22T22:10:30.305Z,68.66
2022-10-22T22:15:31.754Z,69.32
2022-10-22T22:20:33.139Z,69.56
2022-10-22T22:25:34.560Z,70.42
2022-10-22T22:30:35.980Z,70.48
2022-10-22T22:40:44.043Z,69.46
2022-10-22T22:45:45.448Z,69.38
2022-10-22T22:50:46.892Z,69.96
2022-10-22T22:55:48.505Z,70.70
2022-10-22T23:00:49.917Z,69.66
2022-10-22T23:05:51.342Z,69.70
2022-10-22T23:10:52.745Z,69.26
2022-10-22T23:15:54.139Z,70.82
2022-10-22T23:20:55.539Z,70.35
2022-10-22T23:31:04.293Z,70.50
2022-10-22T23:36:05.945Z,70.61
2022-10-22T23:41:08.086Z,71.20
2022-10-22T23:46:11.591Z,71.06
2022-10-22T23:51:15.062Z,71.20
2022-10-22T23:56:17.984Z,70.60
